Impacts METAR Board
IDs:

KDFW - Dallas-Ft Worth Intl, TX, US

Updated at: 2100 UTC 01 Feb 2023
Potential Impact None Slight Moderate High
Time 01/09Z 01/10Z 01/11Z 01/12Z 01/13Z 01/14Z 01/15Z 01/16Z 01/17Z 01/18Z 01/19Z 01/20Z 01/21Z
Temp28 28 28 28 28 28 28 29 29 30 29 29 29
Dewpt17 18 18 17 18 18 19 21 22 23 24 24 24
Altim30.36 30.35 30.36 30.34 30.34 30.35 30.37 30.41 30.39 30.37 30.35 30.30 30.29
VIS10 10 10 10 10 10 10 10 10 10 7 10 7
CIG130 130 120 120 110 110 90 85 100 80 75 80 12
CoverOVCOVCOVCOVCOVCOVCOVCOVCOVCOVCOVCOVCOVC
FltCatVFRVFRVFRVFRVFRVFRVFRVFRVFRVFRVFRVFRMVFR
WX-------------FZRA PL-FZRA-FZRA-FZRA-FZRA-FZRA-FZRA
WDir34034035010360360103501010330350340
WSpd13 9 8 7 11 11 8 6 7 6 8 8 5
WGst-- -- -- -- -- -- -- -- -- -- -- -- --
Raw hourly METARs
KDFW 010853Z 34013KT 10SM SCT047 OVC130 M02/M08 A3036 RMK AO2 SLP284 T10221083 56009
KDFW 010953Z 34009KT 10SM FEW047 OVC130 M02/M08 A3035 RMK AO2 SLP283 T10221078
KDFW 011053Z 35008KT 10SM OVC120 M02/M08 A3036 RMK AO2 SLP285 T10221078
KDFW 011153Z 01007KT 10SM OVC120 M02/M08 A3034 RMK AO2 SLP278 70035 T10221083 11017 21022 58006
KDFW 011253Z 36011KT 10SM OVC110 M02/M08 A3034 RMK AO2 SLP279 T10221078
KDFW 011353Z 36011KT 10SM OVC110 M02/M08 A3035 RMK AO2 SLP282 T10221078
KDFW 011453Z 01008KT 10SM -FZRAPL OVC090 M02/M07 A3037 RMK AO2 SLP289 FZDZB10E50FZRAB50PLB50 P0000 60000 I1000 I3000 T10221072 53010
KDFW 011553Z 35006KT 10SM -FZRA FEW028 BKN085 OVC100 M02/M06 A3041 RMK AO2 PRESRR SLP302 FZRAE21B30PLE21B30E51 P0001 I1000 T10171061
KDFW 011653Z 01007KT 10SM -FZRA SCT080 OVC100 M02/M06 A3039 RMK AO2 SLP294 P0001 I1000 T10171056
KDFW 011753Z 01006KT 10SM -FZRA FEW030 BKN080 OVC100 M01/M05 A3037 RMK AO2 SLP287 P0001 60003 I1001 I6001 T10111050 11011 21022 58002
KDFW 011853Z 33008KT 7SM -FZRA BKN075 OVC090 M02/M04 A3035 RMK AO2 SLP282 P0002 I1001 T10171044
KDFW 012004Z 35008KT 10SM -FZRA SCT014 BKN080 OVC095 M02/M04 A3030 RMK AO2 SCT V BKN P0000 I1000 T10171044
KDFW 012053Z 34005KT 7SM -FZRA BKN012 BKN065 OVC085 M02/M04 A3029 RMK AO2 SLP261 P0001 60005 I1001 I3002 T10171044 56025



Page loaded:  21:43 UTC  |   01:43 PM Pacific  |   02:43 PM Mountain  |   03:43 PM Central  |   04:43 PM Eastern

 

ADVISORIES

FORECASTS

FORECASTS

OBSERVATIONS

USER TOOLS

ABOUT US